createdAt,value
2023-10-08T00:00:47.935Z,3.60
2023-10-08T00:03:54.835Z,3.30
2023-10-08T00:06:56.644Z,3.80
2023-10-08T00:09:58.076Z,3.90
2023-10-08T00:12:59.804Z,8.10
2023-10-08T00:16:01.269Z,12.87
2023-10-08T00:19:09.940Z,14.80
2023-10-08T00:22:13.949Z,13.93
2023-10-08T00:25:17.237Z,13.53
2023-10-08T00:28:19.085Z,11.00
2023-10-08T00:31:20.703Z,9.40
2023-10-08T00:34:22.234Z,7.00
2023-10-08T00:37:27.952Z,5.83
2023-10-08T00:40:40.930Z,4.73
2023-10-08T00:43:43.222Z,4.37
2023-10-08T00:46:49.176Z,3.80
2023-10-08T00:50:04.117Z,3.83
2023-10-08T00:53:11.531Z,3.90
2023-10-08T00:56:15.070Z,4.00
2023-10-08T00:59:17.441Z,4.03
2023-10-08T01:02:26.764Z,3.97
2023-10-08T01:05:43.558Z,3.77
2023-10-08T01:08:52.738Z,3.73
2023-10-08T01:12:34.787Z,3.73
2023-10-08T01:15:39.089Z,3.83
2023-10-08T01:18:47.809Z,3.70
2023-10-08T01:21:49.341Z,3.70
2023-10-08T01:24:50.790Z,3.70
2023-10-08T01:28:10.579Z,3.57
2023-10-08T01:31:14.075Z,3.80
2023-10-08T01:34:18.613Z,3.73
2023-10-08T01:37:20.194Z,4.27
2023-10-08T01:40:21.655Z,3.87
2023-10-08T01:43:23.715Z,3.50
2023-10-08T01:46:26.679Z,3.83
2023-10-08T01:49:33.382Z,4.23
2023-10-08T01:52:35.795Z,3.70
2023-10-08T01:55:50.471Z,3.80
2023-10-08T01:58:52.132Z,3.87
2023-10-08T02:01:57.188Z,3.90
2023-10-08T02:04:58.796Z,4.00
2023-10-08T02:08:00.342Z,4.13
2023-10-08T02:11:03.598Z,3.87
2023-10-08T02:14:05.917Z,3.90
2023-10-08T02:17:07.772Z,4.53
2023-10-08T02:20:09.894Z,4.10
2023-10-08T02:23:12.966Z,3.50
2023-10-08T02:26:15.941Z,4.60
2023-10-08T02:29:17.504Z,3.80
2023-10-08T02:32:19.862Z,4.40
2023-10-08T02:35:21.424Z,4.53
2023-10-08T02:38:24.015Z,3.93
2023-10-08T02:41:25.863Z,4.07
2023-10-08T02:44:28.390Z,4.20
2023-10-08T02:47:30.122Z,3.90
2023-10-08T02:50:34.044Z,3.90
2023-10-08T02:53:36.417Z,3.43
2023-10-08T02:56:40.109Z,3.60
2023-10-08T02:59:42.329Z,3.87
2023-10-08T03:02:47.413Z,4.00
2023-10-08T03:05:51.734Z,4.03
2023-10-08T03:08:53.317Z,3.90
2023-10-08T03:11:54.822Z,3.73
2023-10-08T03:15:02.826Z,3.60
2023-10-08T03:18:16.739Z,3.93
2023-10-08T03:21:24.769Z,3.60
2023-10-08T03:24:35.982Z,3.70
2023-10-08T03:27:43.072Z,3.97
2023-10-08T03:30:57.297Z,4.13
2023-10-08T03:33:58.841Z,3.60
2023-10-08T03:37:09.604Z,3.90
2023-10-08T03:40:33.287Z,3.50
2023-10-08T03:43:35.914Z,4.07
2023-10-08T03:46:48.209Z,4.10
2023-10-08T03:49:52.305Z,3.97
2023-10-08T03:52:56.242Z,4.10
2023-10-08T03:56:01.933Z,4.10
2023-10-08T03:59:31.055Z,4.40
2023-10-08T04:02:42.688Z,3.70
2023-10-08T04:06:13.104Z,3.83
2023-10-08T04:09:24.915Z,3.83
2023-10-08T04:12:28.152Z,4.00
2023-10-08T04:15:29.898Z,4.33
2023-10-08T04:18:31.682Z,3.93
2023-10-08T04:21:34.938Z,4.20
2023-10-08T04:24:36.721Z,3.97
2023-10-08T04:27:38.450Z,4.47
2023-10-08T04:30:42.363Z,4.10
2023-10-08T04:33:45.479Z,3.93
2023-10-08T04:36:47.273Z,3.83
2023-10-08T04:39:55.576Z,4.13
2023-10-08T04:43:03.027Z,4.60
2023-10-08T04:46:20.901Z,4.13
2023-10-08T04:49:31.708Z,4.27
2023-10-08T04:52:35.522Z,4.03
2023-10-08T04:55:42.812Z,4.23
2023-10-08T04:58:48.589Z,4.03
2023-10-08T05:02:03.736Z,4.10
2023-10-08T05:05:11.152Z,4.77
2023-10-08T05:08:29.368Z,3.87
2023-10-08T05:11:49.310Z,4.10
2023-10-08T05:15:13.733Z,4.70
2023-10-08T05:18:15.295Z,4.60
2023-10-08T05:21:37.122Z,4.87
2023-10-08T05:24:52.229Z,5.10
2023-10-08T05:27:54.665Z,5.97
2023-10-08T05:31:12.403Z,5.10
2023-10-08T05:34:33.906Z,5.20
2023-10-08T05:37:42.920Z,5.37
2023-10-08T05:41:00.658Z,4.63
2023-10-08T05:44:20.472Z,5.30
2023-10-08T05:47:34.130Z,5.60
2023-10-08T05:50:56.033Z,5.20
2023-10-08T05:53:57.570Z,4.80
2023-10-08T05:57:13.643Z,5.50
2023-10-08T06:00:15.619Z,5.07
2023-10-08T06:03:50.007Z,5.80
2023-10-08T06:07:11.499Z,4.90
2023-10-08T06:10:27.806Z,5.20
2023-10-08T06:13:46.385Z,5.37
2023-10-08T06:17:03.174Z,5.30
2023-10-08T06:20:10.763Z,5.23
2023-10-08T06:23:20.254Z,4.83
2023-10-08T06:26:25.207Z,4.77
2023-10-08T06:29:30.565Z,4.90
2023-10-08T06:32:32.261Z,5.23
2023-10-08T06:35:34.726Z,5.47
2023-10-08T06:38:36.369Z,5.40
2023-10-08T06:41:48.580Z,5.63
2023-10-08T06:44:54.310Z,7.57
2023-10-08T06:47:58.344Z,8.30
2023-10-08T06:51:08.758Z,7.77
2023-10-08T06:54:17.806Z,7.17
2023-10-08T06:57:21.462Z,6.43
2023-10-08T07:00:39.286Z,6.67
2023-10-08T07:03:40.880Z,6.07
2023-10-08T07:06:44.110Z,4.97
2023-10-08T07:09:45.862Z,4.90
2023-10-08T07:12:47.733Z,4.77
2023-10-08T07:15:56.219Z,5.10
2023-10-08T07:19:04.007Z,4.90
2023-10-08T07:22:30.146Z,4.80
2023-10-08T07:25:38.171Z,4.63
2023-10-08T07:28:41.134Z,4.93
2023-10-08T07:31:42.961Z,5.10
2023-10-08T07:34:45.490Z,4.90
2023-10-08T07:37:48.250Z,4.63
2023-10-08T07:40:49.757Z,5.47
2023-10-08T07:43:57.313Z,5.17
2023-10-08T07:46:59.053Z,4.70
2023-10-08T07:50:00.566Z,4.90
2023-10-08T07:53:05.184Z,4.57
2023-10-08T07:56:09.636Z,4.07
2023-10-08T07:59:14.539Z,4.60
2023-10-08T08:02:18.905Z,4.17
2023-10-08T08:05:21.795Z,4.60
2023-10-08T08:08:23.909Z,4.50
2023-10-08T08:11:27.403Z,4.33
2023-10-08T08:14:30.013Z,4.97
2023-10-08T08:17:32.235Z,4.07
2023-10-08T08:20:40.167Z,4.53
2023-10-08T08:23:51.638Z,5.13
2023-10-08T08:27:02.949Z,4.20
2023-10-08T08:30:11.486Z,4.03
2023-10-08T08:33:14.297Z,4.40
2023-10-08T08:36:15.790Z,5.00
2023-10-08T08:39:29.672Z,4.23
2023-10-08T08:42:36.083Z,4.83
2023-10-08T08:45:41.568Z,4.63
2023-10-08T08:48:47.968Z,4.43
2023-10-08T08:51:54.525Z,4.43
2023-10-08T08:54:56.140Z,4.33
2023-10-08T08:57:57.819Z,4.50
2023-10-08T09:01:00.924Z,4.50
2023-10-08T09:04:06.265Z,4.27
2023-10-08T09:07:09.079Z,4.90
2023-10-08T09:10:13.385Z,4.40
2023-10-08T09:13:14.833Z,4.20
2023-10-08T09:16:18.281Z,4.63
2023-10-08T09:19:20.101Z,4.30
2023-10-08T09:22:22.662Z,4.27
2023-10-08T09:25:25.248Z,4.50
2023-10-08T09:28:26.697Z,4.20
2023-10-08T09:31:36.456Z,3.93
2023-10-08T09:34:38.093Z,4.00
2023-10-08T09:37:40.416Z,3.80
2023-10-08T09:40:42.779Z,4.00
2023-10-08T09:43:46.158Z,4.23
2023-10-08T09:46:55.290Z,4.20
2023-10-08T09:50:13.668Z,4.50
2023-10-08T09:53:20.547Z,4.00
2023-10-08T09:56:23.920Z,4.53
2023-10-08T09:59:28.642Z,4.10
2023-10-08T10:02:32.607Z,3.83
2023-10-08T10:05:37.185Z,4.00
2023-10-08T10:08:38.690Z,4.27
2023-10-08T10:11:40.384Z,3.93
2023-10-08T10:14:43.954Z,4.00
2023-10-08T10:17:48.346Z,4.27
2023-10-08T10:21:01.611Z,4.20
2023-10-08T10:24:06.874Z,4.50
2023-10-08T10:27:19.034Z,4.27
2023-10-08T10:30:24.161Z,4.10
2023-10-08T10:33:35.138Z,4.20
2023-10-08T10:36:38.156Z,4.20
2023-10-08T10:39:42.975Z,3.60
2023-10-08T10:42:54.311Z,3.90
2023-10-08T10:45:56.588Z,4.30
2023-10-08T10:49:08.550Z,4.30
2023-10-08T10:52:18.932Z,4.03
2023-10-08T10:55:32.450Z,4.20
2023-10-08T10:58:40.697Z,4.20
2023-10-08T11:01:47.990Z,4.03
2023-10-08T11:04:49.974Z,3.77
2023-10-08T11:07:51.591Z,3.90
2023-10-08T11:10:54.548Z,4.43
2023-10-08T11:14:04.252Z,4.43
2023-10-08T11:17:23.524Z,4.47
2023-10-08T11:20:29.075Z,3.73
2023-10-08T11:23:42.605Z,4.00
2023-10-08T11:27:02.643Z,4.43
2023-10-08T11:30:12.036Z,3.77
2023-10-08T11:33:16.569Z,3.87
2023-10-08T11:36:25.915Z,3.90
2023-10-08T11:39:31.595Z,4.43
2023-10-08T11:42:35.090Z,4.13
2023-10-08T11:45:39.784Z,4.13
2023-10-08T11:48:44.736Z,3.77
2023-10-08T11:51:47.273Z,4.00
2023-10-08T11:54:49.949Z,4.13
2023-10-08T11:57:52.182Z,3.93
2023-10-08T12:00:53.878Z,4.20
2023-10-08T12:04:00.729Z,4.40
2023-10-08T12:07:08.435Z,4.17
2023-10-08T12:10:12.328Z,3.90
2023-10-08T12:13:13.968Z,4.27
2023-10-08T12:16:24.775Z,4.20
2023-10-08T12:19:27.319Z,4.00
2023-10-08T12:22:30.768Z,4.40
2023-10-08T12:25:33.629Z,4.30
2023-10-08T12:28:35.326Z,4.63
2023-10-08T12:31:36.834Z,4.50
2023-10-08T12:34:38.995Z,4.20
2023-10-08T12:37:40.710Z,4.07
2023-10-08T12:40:48.730Z,4.47
2023-10-08T12:43:53.649Z,4.03
2023-10-08T12:46:57.239Z,3.90
2023-10-08T12:49:58.931Z,4.50
2023-10-08T12:53:05.123Z,4.03
2023-10-08T12:56:15.617Z,4.00
2023-10-08T12:59:25.048Z,3.93
2023-10-08T13:02:30.175Z,4.50
2023-10-08T13:05:32.102Z,4.50
2023-10-08T13:08:35.118Z,4.72
2023-10-08T13:11:40.100Z,4.10
2023-10-08T13:14:42.219Z,4.50
2023-10-08T13:17:46.514Z,4.28
2023-10-08T13:20:49.217Z,4.40
2023-10-08T13:23:51.024Z,4.33
2023-10-08T13:26:53.097Z,4.80
2023-10-08T13:29:54.916Z,4.30
2023-10-08T13:32:56.582Z,4.13
2023-10-08T13:36:15.319Z,4.25
2023-10-08T13:39:20.460Z,4.72
2023-10-08T13:42:22.580Z,4.38
2023-10-08T13:45:27.861Z,4.03
2023-10-08T13:48:29.726Z,4.80
2023-10-08T13:51:31.798Z,4.10
2023-10-08T13:54:37.311Z,4.07
2023-10-08T13:57:39.149Z,4.47
2023-10-08T14:00:40.820Z,4.45
2023-10-08T14:03:42.744Z,3.78
2023-10-08T14:06:49.170Z,4.25
2023-10-08T14:09:51.765Z,4.50
2023-10-08T14:12:54.654Z,4.35
2023-10-08T14:15:57.192Z,4.43
2023-10-08T14:19:00.868Z,4.43
2023-10-08T14:22:09.320Z,4.40
2023-10-08T14:25:14.933Z,4.22
2023-10-08T14:28:22.968Z,4.50
2023-10-08T14:31:25.837Z,4.50
2023-10-08T14:34:46.028Z,4.82
2023-10-08T14:38:06.063Z,4.15
2023-10-08T14:41:26.201Z,3.88
2023-10-08T14:44:28.255Z,3.90
2023-10-08T14:47:30.152Z,4.03
2023-10-08T14:50:34.872Z,4.15
2023-10-08T14:53:39.570Z,4.05
2023-10-08T14:56:41.088Z,4.47
2023-10-08T14:59:42.919Z,4.32
2023-10-08T15:02:45.533Z,4.15
2023-10-08T15:05:47.816Z,4.95
2023-10-08T15:08:50.982Z,4.32
2023-10-08T15:11:53.523Z,4.57
2023-10-08T15:14:55.034Z,4.55
2023-10-08T15:17:56.973Z,5.00
2023-10-08T15:20:59.230Z,4.65
2023-10-08T15:24:11.381Z,4.10
2023-10-08T15:27:13.023Z,4.55
2023-10-08T15:30:16.939Z,4.72
2023-10-08T15:33:18.743Z,5.50
2023-10-08T15:36:20.441Z,4.82
2023-10-08T15:39:25.253Z,4.70
2023-10-08T15:42:26.764Z,3.97
2023-10-08T15:45:29.324Z,4.75
2023-10-08T15:48:31.054Z,4.60
2023-10-08T15:51:32.769Z,4.63
2023-10-08T15:54:34.290Z,4.40
2023-10-08T15:57:35.886Z,4.15
2023-10-08T16:00:37.487Z,4.55
2023-10-08T16:03:39.689Z,4.38
2023-10-08T16:06:41.672Z,4.65
2023-10-08T16:09:43.235Z,4.32
2023-10-08T16:12:44.718Z,4.47
2023-10-08T16:15:46.295Z,4.47
2023-10-08T16:18:48.568Z,4.55
2023-10-08T16:21:50.244Z,4.57
2023-10-08T16:24:52.642Z,4.13
2023-10-08T16:27:54.400Z,4.95
2023-10-08T16:30:55.974Z,4.70
2023-10-08T16:33:57.567Z,4.22
2023-10-08T16:36:59.572Z,5.20
2023-10-08T16:40:01.774Z,4.53
2023-10-08T16:43:03.261Z,4.32
2023-10-08T16:46:06.617Z,4.60
2023-10-08T16:49:09.336Z,4.40
2023-10-08T16:52:11.816Z,4.87
2023-10-08T16:55:14.912Z,5.33
2023-10-08T16:58:16.998Z,7.03
2023-10-08T17:01:18.837Z,6.33
2023-10-08T17:04:20.390Z,5.57
2023-10-08T17:07:23.919Z,6.40
2023-10-08T17:10:30.440Z,5.97
2023-10-08T17:13:32.436Z,6.30
2023-10-08T17:16:33.902Z,6.30
2023-10-08T17:19:36.021Z,8.10
2023-10-08T17:22:38.439Z,7.83
2023-10-08T17:25:40.295Z,6.67
2023-10-08T17:28:42.704Z,6.00
2023-10-08T17:31:44.414Z,6.10
2023-10-08T17:34:47.330Z,7.30
2023-10-08T17:37:49.161Z,6.53
2023-10-08T17:40:50.635Z,6.33
2023-10-08T17:43:52.276Z,6.50
2023-10-08T17:46:53.961Z,5.83
2023-10-08T17:49:56.886Z,6.50
2023-10-08T17:52:58.361Z,6.63
2023-10-08T17:56:00.084Z,6.37
2023-10-08T17:59:01.557Z,6.43
2023-10-08T18:02:03.117Z,6.40
2023-10-08T18:05:06.107Z,5.57
2023-10-08T18:08:07.697Z,6.00
2023-10-08T18:11:09.829Z,5.97
2023-10-08T18:14:12.601Z,5.97
2023-10-08T18:17:14.724Z,5.97
2023-10-08T18:20:20.625Z,5.80
2023-10-08T18:23:24.549Z,5.37
2023-10-08T18:26:27.502Z,5.53
2023-10-08T18:29:29.041Z,6.73
2023-10-08T18:32:31.333Z,6.43
2023-10-08T18:35:33.614Z,6.50
2023-10-08T18:38:35.845Z,6.47
2023-10-08T18:41:37.431Z,6.13
2023-10-08T18:44:38.902Z,5.80
2023-10-08T18:47:41.936Z,5.53
2023-10-08T18:50:45.842Z,5.60
2023-10-08T18:53:50.069Z,5.97
2023-10-08T18:56:51.641Z,5.53
2023-10-08T18:59:53.453Z,5.20
2023-10-08T19:02:56.467Z,5.60
2023-10-08T19:05:58.082Z,5.83
2023-10-08T19:09:02.581Z,5.87
2023-10-08T19:12:07.258Z,6.53
2023-10-08T19:15:14.469Z,5.53
2023-10-08T19:18:16.371Z,5.97
2023-10-08T19:21:19.240Z,5.37
2023-10-08T19:24:20.867Z,5.83
2023-10-08T19:27:25.072Z,6.17
2023-10-08T19:30:26.861Z,5.70
2023-10-08T19:33:28.860Z,5.80
2023-10-08T19:36:31.779Z,5.47
2023-10-08T19:39:33.289Z,6.07
2023-10-08T19:42:39.031Z,6.60
2023-10-08T19:45:40.681Z,8.10
2023-10-08T19:48:42.582Z,9.90
2023-10-08T19:51:44.198Z,9.20
2023-10-08T19:54:45.877Z,7.30
2023-10-08T19:57:47.354Z,6.00
2023-10-08T20:00:51.093Z,5.70
2023-10-08T20:03:53.035Z,6.23
2023-10-08T20:06:54.672Z,5.93
2023-10-08T20:09:56.340Z,6.33
2023-10-08T20:12:58.342Z,6.30
2023-10-08T20:16:00.261Z,6.13
2023-10-08T20:19:06.188Z,6.53
2023-10-08T20:22:07.675Z,7.00
2023-10-08T20:25:15.832Z,6.90
2023-10-08T20:28:18.395Z,6.07
2023-10-08T20:31:22.170Z,6.17
2023-10-08T20:34:24.443Z,6.60
2023-10-08T20:37:28.413Z,6.27
2023-10-08T20:40:30.956Z,6.67
2023-10-08T20:43:33.699Z,6.73
2023-10-08T20:46:36.462Z,5.97
2023-10-08T20:49:38.587Z,6.87
2023-10-08T20:52:40.932Z,6.07
2023-10-08T20:55:43.007Z,6.30
2023-10-08T20:58:45.128Z,5.67
2023-10-08T21:01:48.082Z,5.93
2023-10-08T21:04:50.593Z,5.30
2023-10-08T21:07:52.420Z,5.50
2023-10-08T21:13:59.745Z,6.13
2023-10-08T21:17:02.517Z,6.10
2023-10-08T21:20:16.352Z,6.27
2023-10-08T21:23:17.990Z,6.37
2023-10-08T21:26:21.312Z,6.47
2023-10-08T21:29:22.878Z,5.90
2023-10-08T21:32:24.439Z,6.03
2023-10-08T21:35:26.404Z,6.80
2023-10-08T21:38:29.723Z,7.20
2023-10-08T21:41:32.349Z,7.20
2023-10-08T21:44:33.781Z,8.27
2023-10-08T21:47:36.736Z,6.87
2023-10-08T21:50:38.419Z,6.30
2023-10-08T21:53:39.935Z,6.70
2023-10-08T21:56:41.507Z,6.43
2023-10-08T21:59:42.979Z,6.83
2023-10-08T22:02:46.047Z,6.57
2023-10-08T22:05:47.720Z,6.30
2023-10-08T22:08:50.432Z,6.53
2023-10-08T22:11:52.140Z,6.60
2023-10-08T22:14:56.425Z,6.70
2023-10-08T22:18:03.628Z,6.80
2023-10-08T22:21:11.567Z,6.87
2023-10-08T22:24:13.536Z,7.67
2023-10-08T22:27:34.479Z,7.97
2023-10-08T22:30:36.830Z,7.40
2023-10-08T22:33:46.949Z,6.47
2023-10-08T22:36:48.825Z,7.40
2023-10-08T22:39:52.743Z,6.40
2023-10-08T22:42:54.994Z,6.90
2023-10-08T22:45:58.652Z,6.70
2023-10-08T22:49:17.642Z,6.63
2023-10-08T22:52:22.538Z,6.13
2023-10-08T22:55:24.605Z,6.37
2023-10-08T22:58:26.035Z,5.63
2023-10-08T23:01:28.491Z,6.00
2023-10-08T23:04:30.633Z,5.67
2023-10-08T23:07:32.213Z,6.10
2023-10-08T23:10:33.653Z,6.00
2023-10-08T23:13:37.073Z,6.47
2023-10-08T23:16:41.087Z,6.23
2023-10-08T23:19:42.556Z,6.40
2023-10-08T23:22:45.083Z,6.00
2023-10-08T23:25:47.532Z,5.70
2023-10-08T23:28:49.375Z,6.13
2023-10-08T23:31:50.902Z,5.90
2023-10-08T23:35:00.316Z,6.03
2023-10-08T23:38:08.027Z,5.33
2023-10-08T23:41:16.855Z,6.60
2023-10-08T23:44:30.891Z,6.10
2023-10-08T23:47:32.411Z,6.07
2023-10-08T23:50:35.220Z,6.23
2023-10-08T23:53:48.060Z,6.23
2023-10-08T23:56:49.930Z,6.20
2023-10-08T23:59:57.608Z,6.23
